createdAt,value
2022-09-15T00:01:09.549Z,12.15
2022-09-15T00:03:36.722Z,12.16
2022-09-15T00:06:03.896Z,12.17
2022-09-15T00:08:31.060Z,12.09
2022-09-15T00:11:15.292Z,12.02
2022-09-15T00:13:42.145Z,12.05
2022-09-15T00:16:14.641Z,12.06
2022-09-15T00:18:42.989Z,12.03
2022-09-15T00:21:15.668Z,11.99
2022-09-15T00:23:42.810Z,11.99
2022-09-15T00:26:14.838Z,12.04
2022-09-15T00:28:42.415Z,12.05
2022-09-15T00:31:22.453Z,12.03
2022-09-15T00:33:52.301Z,12.04
2022-09-15T00:36:20.873Z,12.00
2022-09-15T00:38:48.302Z,12.00
2022-09-15T00:41:18.873Z,11.95
2022-09-15T00:43:53.408Z,11.90
2022-09-15T00:46:29.839Z,11.89
2022-09-15T00:49:19.435Z,11.88
2022-09-15T00:51:51.688Z,11.87
2022-09-15T00:54:49.070Z,11.85
2022-09-15T00:57:56.004Z,11.76
2022-09-15T01:00:27.945Z,11.71
2022-09-15T01:02:57.375Z,11.72
2022-09-15T01:05:32.971Z,11.68
2022-09-15T01:08:09.001Z,11.58
2022-09-15T01:10:41.241Z,11.53
2022-09-15T01:13:12.412Z,11.52
2022-09-15T01:16:26.326Z,11.52
2022-09-15T01:19:17.938Z,11.51
2022-09-15T01:21:58.785Z,11.50
2022-09-15T01:25:00.847Z,11.43
2022-09-15T01:27:43.198Z,11.41
2022-09-15T01:30:17.464Z,11.36
2022-09-15T01:33:09.212Z,11.31
2022-09-15T01:36:04.031Z,11.21
2022-09-15T01:39:01.072Z,11.22
2022-09-15T01:41:37.783Z,11.21
2022-09-15T01:44:11.274Z,11.20
2022-09-15T01:46:47.318Z,11.17
2022-09-15T01:49:24.048Z,11.21
2022-09-15T01:51:54.172Z,11.21
2022-09-15T01:54:28.282Z,11.14
2022-09-15T01:56:55.567Z,11.08
2022-09-15T01:59:22.663Z,11.09
2022-09-15T02:01:57.467Z,11.12
2022-09-15T02:04:41.218Z,11.12
2022-09-15T02:07:51.966Z,11.07
2022-09-15T02:11:04.303Z,11.02
2022-09-15T02:13:39.252Z,10.97
2022-09-15T02:16:20.208Z,10.99
2022-09-15T02:19:16.147Z,11.00
2022-09-15T02:22:02.847Z,11.01
2022-09-15T02:24:39.901Z,10.94
2022-09-15T02:27:18.456Z,10.87
2022-09-15T02:29:50.058Z,10.88
2022-09-15T02:32:23.198Z,10.87
2022-09-15T02:34:54.514Z,10.86
2022-09-15T02:37:24.368Z,10.84
2022-09-15T02:40:00.282Z,10.78
2022-09-15T02:42:32.034Z,10.78
2022-09-15T02:45:01.160Z,10.78
2022-09-15T02:47:29.191Z,10.68
2022-09-15T02:49:57.227Z,10.68
2022-09-15T02:52:24.647Z,10.75
2022-09-15T02:54:51.360Z,10.78
2022-09-15T02:57:18.238Z,10.78
2022-09-15T03:00:03.635Z,10.81
2022-09-15T03:02:31.063Z,10.88
2022-09-15T03:04:57.996Z,10.93
2022-09-15T03:07:24.983Z,10.93
2022-09-15T03:09:51.721Z,10.90
2022-09-15T03:12:19.212Z,10.92
2022-09-15T03:14:47.097Z,10.96
2022-09-15T03:17:13.944Z,11.00
2022-09-15T03:19:40.709Z,10.95
2022-09-15T03:22:09.444Z,10.87
2022-09-15T03:24:38.187Z,10.86
2022-09-15T03:27:05.805Z,10.72
2022-09-15T03:29:32.541Z,10.56
2022-09-15T03:31:59.433Z,10.53
2022-09-15T03:34:26.203Z,10.55
2022-09-15T03:36:52.826Z,10.62
2022-09-15T03:39:19.497Z,10.62
2022-09-15T03:41:46.177Z,10.59
2022-09-15T03:44:12.833Z,10.59
2022-09-15T03:46:39.502Z,10.63
2022-09-15T03:49:06.385Z,10.66
2022-09-15T03:51:33.027Z,10.61
2022-09-15T03:53:59.630Z,10.53
2022-09-15T03:56:31.508Z,10.53
2022-09-15T03:59:03.175Z,10.42
2022-09-15T04:01:30.779Z,10.38
2022-09-15T04:03:58.684Z,10.29
2022-09-15T04:06:26.926Z,10.30
2022-09-15T04:08:54.758Z,10.33
2022-09-15T04:11:22.859Z,10.32
2022-09-15T04:13:50.260Z,10.28
2022-09-15T04:16:21.072Z,10.25
2022-09-15T04:18:47.842Z,10.25
2022-09-15T04:21:19.108Z,10.25
2022-09-15T04:23:47.273Z,10.21
2022-09-15T04:26:31.231Z,10.23
2022-09-15T04:29:03.606Z,10.19
2022-09-15T04:31:31.926Z,10.14
2022-09-15T04:33:59.448Z,10.12
2022-09-15T04:36:28.460Z,10.12
2022-09-15T04:38:56.839Z,10.12
2022-09-15T04:41:26.112Z,10.07
2022-09-15T04:43:53.654Z,10.07
2022-09-15T04:46:21.311Z,10.09
2022-09-15T04:48:49.090Z,10.10
2022-09-15T04:51:21.272Z,10.10
2022-09-15T04:53:49.031Z,10.07
2022-09-15T04:56:22.869Z,10.05
2022-09-15T05:03:02.583Z,10.03
2022-09-15T05:05:29.258Z,10.06
2022-09-15T05:07:56.056Z,9.99
2022-09-15T05:10:22.938Z,9.97
2022-09-15T05:12:49.670Z,9.98
2022-09-15T05:15:16.739Z,9.99
2022-09-15T05:17:43.453Z,10.01
2022-09-15T05:20:10.428Z,10.03
2022-09-15T05:22:41.644Z,10.04
2022-09-15T05:25:09.389Z,10.06
2022-09-15T05:27:36.822Z,10.03
2022-09-15T05:30:35.183Z,10.13
2022-09-15T05:32:50.911Z,10.21
2022-09-15T05:35:17.617Z,10.22
2022-09-15T05:37:44.405Z,10.24
2022-09-15T05:40:11.273Z,10.33
2022-09-15T05:42:37.901Z,10.39
2022-09-15T05:45:05.183Z,10.45
2022-09-15T05:47:31.790Z,10.53
2022-09-15T05:49:58.846Z,10.55
2022-09-15T05:52:25.524Z,10.60
2022-09-15T05:54:56.932Z,10.70
2022-09-15T05:57:25.605Z,10.81
2022-09-15T05:59:52.430Z,10.91
2022-09-15T06:02:19.322Z,11.03
2022-09-15T06:04:46.327Z,11.17
2022-09-15T06:07:13.279Z,11.28
2022-09-15T06:09:40.107Z,11.43
2022-09-15T06:12:10.065Z,11.64
2022-09-15T06:14:37.013Z,11.88
2022-09-15T06:17:03.684Z,11.85
2022-09-15T06:19:30.467Z,11.78
2022-09-15T06:21:57.178Z,11.76
2022-09-15T06:24:24.349Z,11.79
2022-09-15T06:26:51.125Z,11.95
2022-09-15T06:29:17.868Z,12.12
2022-09-15T06:31:44.643Z,12.32
2022-09-15T06:34:11.841Z,12.64
2022-09-15T06:36:39.153Z,13.01
2022-09-15T06:39:06.102Z,13.20
2022-09-15T06:41:58.460Z,13.32
2022-09-15T06:44:20.312Z,13.20
2022-09-15T06:46:48.102Z,13.07
2022-09-15T06:49:14.891Z,13.14
2022-09-15T06:51:42.064Z,13.20
2022-09-15T06:54:08.732Z,13.35
2022-09-15T06:56:38.035Z,13.46
2022-09-15T06:59:06.065Z,13.50
2022-09-15T07:01:33.406Z,13.53
2022-09-15T07:04:04.019Z,13.51
2022-09-15T07:06:33.705Z,13.55
2022-09-15T07:09:02.489Z,13.66
2022-09-15T07:11:30.368Z,13.80
2022-09-15T07:13:57.905Z,13.96
2022-09-15T07:16:28.157Z,14.06
2022-09-15T07:18:57.263Z,14.14
2022-09-15T07:21:24.718Z,14.09
2022-09-15T07:23:51.857Z,14.22
2022-09-15T07:26:23.122Z,14.22
2022-09-15T07:29:06.202Z,14.21
2022-09-15T07:31:37.089Z,14.30
2022-09-15T07:34:04.973Z,14.44
2022-09-15T07:36:31.919Z,14.42
2022-09-15T07:38:58.696Z,14.42
2022-09-15T07:41:31.344Z,14.48
2022-09-15T07:44:00.359Z,14.73
2022-09-15T07:46:31.852Z,14.83
2022-09-15T07:49:00.649Z,14.55
2022-09-15T07:51:27.364Z,14.43
2022-09-15T07:53:54.522Z,14.52
2022-09-15T07:56:23.343Z,14.61
2022-09-15T07:58:51.150Z,14.67
2022-09-15T08:01:20.132Z,14.70
2022-09-15T08:03:50.715Z,14.80
2022-09-15T08:06:23.796Z,15.00
2022-09-15T08:08:53.180Z,14.92
2022-09-15T08:11:23.219Z,14.86
2022-09-15T08:13:52.514Z,14.79
2022-09-15T08:16:22.827Z,14.97
2022-09-15T08:18:53.129Z,15.12
2022-09-15T08:21:21.983Z,15.23
2022-09-15T08:23:59.198Z,15.12
2022-09-15T08:26:29.037Z,15.13
2022-09-15T08:28:55.923Z,15.22
2022-09-15T08:31:26.542Z,15.27
2022-09-15T08:33:56.489Z,15.44
2022-09-15T08:36:27.634Z,15.62
2022-09-15T08:38:54.647Z,15.57
2022-09-15T08:41:44.629Z,15.97
2022-09-15T08:44:41.252Z,15.83
2022-09-15T08:47:23.827Z,15.58
2022-09-15T08:50:11.504Z,15.66
2022-09-15T08:52:48.066Z,15.57
2022-09-15T08:55:54.443Z,15.54
2022-09-15T08:58:28.593Z,15.48
2022-09-15T09:01:11.152Z,15.43
2022-09-15T09:04:23.383Z,15.44
2022-09-15T09:07:12.904Z,15.54
2022-09-15T09:09:57.182Z,15.35
2022-09-15T09:12:45.560Z,15.35
2022-09-15T09:15:30.743Z,15.36
2022-09-15T09:18:30.903Z,15.32
2022-09-15T09:21:18.310Z,15.42
2022-09-15T09:24:06.389Z,15.41
2022-09-15T09:26:36.798Z,15.54
2022-09-15T09:29:18.561Z,15.71
2022-09-15T09:31:51.090Z,15.56
2022-09-15T09:34:28.526Z,15.32
2022-09-15T09:37:00.557Z,15.33
2022-09-15T09:39:28.579Z,15.39
2022-09-15T09:41:55.682Z,15.36
2022-09-15T09:44:31.672Z,15.30
2022-09-15T09:47:00.677Z,15.42
2022-09-15T09:49:39.404Z,15.56
2022-09-15T09:52:06.188Z,15.69
2022-09-15T09:54:35.525Z,15.96
2022-09-15T09:57:14.557Z,15.95
2022-09-15T09:59:50.748Z,15.96
2022-09-15T10:02:26.068Z,15.97
2022-09-15T10:04:55.998Z,15.89
2022-09-15T10:07:26.819Z,15.85
2022-09-15T10:09:59.663Z,15.78
2022-09-15T10:12:40.719Z,15.96
2022-09-15T10:15:23.443Z,16.21
2022-09-15T10:17:52.167Z,16.29
2022-09-15T10:20:32.639Z,16.38
2022-09-15T10:23:17.565Z,16.85
2022-09-15T10:26:01.084Z,16.92
2022-09-15T10:28:28.595Z,16.63
2022-09-15T10:31:15.762Z,16.33
2022-09-15T10:33:47.635Z,16.26
2022-09-15T10:36:23.696Z,16.19
2022-09-15T10:38:58.245Z,16.45
2022-09-15T10:41:32.722Z,16.53
2022-09-15T10:44:35.903Z,16.57
2022-09-15T10:47:36.789Z,17.08
2022-09-15T10:50:29.026Z,17.49
2022-09-15T10:53:25.781Z,17.50
2022-09-15T10:56:25.902Z,17.28
2022-09-15T10:59:06.456Z,17.50
2022-09-15T11:01:59.875Z,17.52
2022-09-15T11:05:01.235Z,17.34
2022-09-15T11:07:54.116Z,17.13
2022-09-15T11:10:44.634Z,16.86
2022-09-15T11:13:27.849Z,16.88
2022-09-15T11:16:28.777Z,16.64
2022-09-15T11:19:11.506Z,16.62
2022-09-15T11:21:43.665Z,16.65
2022-09-15T11:24:26.605Z,16.84
2022-09-15T11:27:21.356Z,16.87
2022-09-15T11:29:48.127Z,16.84
2022-09-15T11:32:31.816Z,16.67
2022-09-15T11:35:20.156Z,16.51
2022-09-15T11:37:51.647Z,16.79
2022-09-15T11:40:33.333Z,17.14
2022-09-15T11:43:29.987Z,17.64
2022-09-15T11:46:01.701Z,17.67
2022-09-15T11:48:44.028Z,17.45
2022-09-15T11:51:17.575Z,17.34
2022-09-15T11:54:01.777Z,17.37
2022-09-15T11:56:40.674Z,17.10
2022-09-15T11:59:39.832Z,16.81
2022-09-15T12:02:32.604Z,16.79
2022-09-15T12:05:20.860Z,16.76
2022-09-15T12:08:01.125Z,16.73
2022-09-15T12:10:36.662Z,16.62
2022-09-15T12:13:05.263Z,16.66
2022-09-15T12:15:32.886Z,16.61
2022-09-15T12:18:38.533Z,16.58
2022-09-15T12:21:19.661Z,16.68
2022-09-15T12:24:25.824Z,16.66
2022-09-15T12:26:52.693Z,16.65
2022-09-15T12:29:22.397Z,16.78
2022-09-15T12:31:58.859Z,17.00
2022-09-15T12:34:25.442Z,17.11
2022-09-15T12:37:08.316Z,17.08
2022-09-15T12:39:43.345Z,16.95
2022-09-15T12:42:18.853Z,16.82
2022-09-15T12:44:55.165Z,17.11
2022-09-15T12:47:28.570Z,17.33
2022-09-15T12:50:20.156Z,17.42
2022-09-15T12:52:57.126Z,17.47
2022-09-15T12:55:34.240Z,17.28
2022-09-15T12:58:15.782Z,17.20
2022-09-15T13:01:16.528Z,17.16
2022-09-15T13:03:37.573Z,17.18
2022-09-15T13:06:10.137Z,17.33
2022-09-15T13:08:36.647Z,17.39
2022-09-15T13:11:10.811Z,17.35
2022-09-15T13:14:11.343Z,17.22
2022-09-15T13:16:41.100Z,17.09
2022-09-15T13:19:44.460Z,17.38
2022-09-15T13:22:10.978Z,17.76
2022-09-15T13:25:15.520Z,17.60
2022-09-15T13:28:01.238Z,17.42
2022-09-15T13:31:17.252Z,17.55
2022-09-15T13:40:37.542Z,17.79
2022-09-15T13:43:47.386Z,17.80
2022-09-15T13:46:40.742Z,17.78
2022-09-15T13:49:50.340Z,17.73
2022-09-15T13:52:22.228Z,17.76
2022-09-15T13:55:32.807Z,17.93
2022-09-15T14:01:07.923Z,17.53
2022-09-15T14:03:49.047Z,17.65
2022-09-15T14:06:23.327Z,17.76
2022-09-15T14:08:55.289Z,17.59
2022-09-15T14:11:35.135Z,17.45
2022-09-15T14:14:02.939Z,17.38
2022-09-15T14:16:37.729Z,17.20
2022-09-15T14:19:37.392Z,17.10
2022-09-15T14:22:26.456Z,16.98
2022-09-15T14:24:56.369Z,16.91
2022-09-15T14:27:30.901Z,16.90
2022-09-15T14:30:03.956Z,16.84
2022-09-15T14:32:39.261Z,16.77
2022-09-15T14:35:16.035Z,16.85
2022-09-15T14:37:56.004Z,17.07
2022-09-15T14:40:32.176Z,17.35
2022-09-15T14:42:58.896Z,17.83
2022-09-15T14:48:28.237Z,18.23
2022-09-15T14:51:04.652Z,18.24
2022-09-15T14:53:37.887Z,18.48
2022-09-15T14:56:16.966Z,18.38
2022-09-15T14:58:52.802Z,18.56
2022-09-15T15:01:25.443Z,18.64
2022-09-15T15:03:59.446Z,18.63
2022-09-15T15:06:38.079Z,18.35
2022-09-15T15:09:56.639Z,18.45
2022-09-15T15:12:36.078Z,18.25
2022-09-15T15:15:05.189Z,18.04
2022-09-15T15:17:44.276Z,18.06
2022-09-15T15:20:10.830Z,17.77
2022-09-15T15:22:40.407Z,17.39
2022-09-15T15:25:32.250Z,17.15
2022-09-15T15:28:01.093Z,16.97
2022-09-15T15:30:47.010Z,16.97
2022-09-15T15:33:28.126Z,16.96
2022-09-15T15:36:11.661Z,16.85
2022-09-15T15:38:51.405Z,16.79
2022-09-15T15:41:41.501Z,16.72
2022-09-15T15:44:29.836Z,16.62
2022-09-15T15:47:02.451Z,16.46
2022-09-15T15:49:32.683Z,16.37
2022-09-15T15:52:01.873Z,16.29
2022-09-15T15:54:29.522Z,16.29
2022-09-15T15:57:22.661Z,16.30
2022-09-15T16:00:00.504Z,16.27
2022-09-15T16:02:27.765Z,16.18
2022-09-15T16:04:54.897Z,16.06
2022-09-15T16:07:24.154Z,15.99
2022-09-15T16:09:51.526Z,15.92
2022-09-15T16:12:18.697Z,15.80
2022-09-15T16:14:45.425Z,15.65
2022-09-15T16:17:12.374Z,15.56
2022-09-15T16:19:39.272Z,15.56
2022-09-15T16:22:06.015Z,15.44
2022-09-15T16:24:33.212Z,15.35
2022-09-15T16:26:59.974Z,15.21
2022-09-15T16:29:31.266Z,15.16
2022-09-15T16:31:58.847Z,15.10
2022-09-15T16:34:25.659Z,15.07
2022-09-15T16:36:52.411Z,15.01
2022-09-15T16:39:19.019Z,14.99
2022-09-15T16:41:45.783Z,14.97
2022-09-15T16:44:20.201Z,14.82
2022-09-15T16:46:46.957Z,14.77
2022-09-15T16:49:13.753Z,14.75
2022-09-15T16:51:40.462Z,14.71
2022-09-15T16:54:19.124Z,14.67
2022-09-15T16:56:46.474Z,14.62
2022-09-15T16:59:13.670Z,14.57
2022-09-15T17:01:40.471Z,14.52
2022-09-15T17:04:16.482Z,14.51
2022-09-15T17:06:43.467Z,14.49
2022-09-15T17:09:10.221Z,14.45
2022-09-15T17:11:37.194Z,14.45
2022-09-15T17:14:04.223Z,14.43
2022-09-15T17:16:30.874Z,14.40
2022-09-15T17:18:57.507Z,14.41
2022-09-15T17:21:24.323Z,14.41
2022-09-15T17:23:51.131Z,14.32
2022-09-15T17:26:28.802Z,14.13
2022-09-15T17:28:58.498Z,13.99
2022-09-15T17:31:25.763Z,13.88
2022-09-15T17:33:53.493Z,13.77
2022-09-15T17:36:20.593Z,13.66
2022-09-15T17:38:48.932Z,13.55
2022-09-15T17:41:22.978Z,13.45
2022-09-15T17:43:50.081Z,13.39
2022-09-15T17:46:17.096Z,13.40
2022-09-15T17:48:44.115Z,13.36
2022-09-15T17:51:19.507Z,13.30
2022-09-15T17:53:48.009Z,13.19
2022-09-15T17:56:14.974Z,13.07
2022-09-15T17:58:42.608Z,13.02
2022-09-15T18:01:14.885Z,12.98
2022-09-15T18:03:45.059Z,12.98
2022-09-15T18:06:12.757Z,12.88
2022-09-15T18:08:41.035Z,12.81
2022-09-15T18:11:07.745Z,12.77
2022-09-15T18:13:34.556Z,12.71
2022-09-15T18:16:10.651Z,12.77
2022-09-15T18:18:39.985Z,12.73
2022-09-15T18:21:12.259Z,12.80
2022-09-15T18:23:42.236Z,12.74
2022-09-15T18:26:08.961Z,12.68
2022-09-15T18:28:35.692Z,12.62
2022-09-15T18:31:02.596Z,12.66
2022-09-15T18:33:30.187Z,12.73
2022-09-15T18:35:59.091Z,12.73
2022-09-15T18:38:26.384Z,12.71
2022-09-15T18:40:56.946Z,12.61
2022-09-15T18:43:27.638Z,12.59
2022-09-15T18:46:01.403Z,12.54
2022-09-15T18:48:29.352Z,12.49
2022-09-15T18:50:56.707Z,12.43
2022-09-15T18:53:23.801Z,12.41
2022-09-15T18:55:50.567Z,12.37
2022-09-15T18:58:19.197Z,12.31
2022-09-15T19:00:46.613Z,12.34
2022-09-15T19:03:14.250Z,12.35
2022-09-15T19:05:41.604Z,12.34
2022-09-15T19:08:09.199Z,12.24
2022-09-15T19:10:38.398Z,12.21
2022-09-15T19:13:05.228Z,12.24
2022-09-15T19:15:34.313Z,12.29
2022-09-15T19:18:02.171Z,12.35
2022-09-15T19:20:29.330Z,12.35
2022-09-15T19:22:57.927Z,12.32
2022-09-15T19:25:25.183Z,12.36
2022-09-15T19:27:51.845Z,12.39
2022-09-15T19:30:18.689Z,12.39
2022-09-15T19:32:45.621Z,12.43
2022-09-15T19:35:13.192Z,12.48
2022-09-15T19:37:41.928Z,12.51
2022-09-15T19:40:13.607Z,12.45
2022-09-15T19:42:42.670Z,12.40
2022-09-15T19:45:12.919Z,12.36
2022-09-15T19:47:41.300Z,12.38
2022-09-15T19:50:12.014Z,12.39
2022-09-15T19:52:38.997Z,12.33
2022-09-15T19:55:09.507Z,12.30
2022-09-15T19:57:42.666Z,12.39
2022-09-15T20:00:12.867Z,12.40
2022-09-15T20:02:40.318Z,12.34
2022-09-15T20:05:08.742Z,12.34
2022-09-15T20:07:35.948Z,12.34
2022-09-15T20:10:03.436Z,12.31
2022-09-15T20:12:31.285Z,12.34
2022-09-15T20:14:58.127Z,12.41
2022-09-15T20:17:24.848Z,12.36
2022-09-15T20:19:51.843Z,12.33
2022-09-15T20:22:18.687Z,12.26
2022-09-15T20:24:45.469Z,12.19
2022-09-15T20:27:12.225Z,12.16
2022-09-15T20:29:38.871Z,12.15
2022-09-15T20:32:05.590Z,12.15
2022-09-15T20:34:32.326Z,12.14
2022-09-15T20:36:58.969Z,12.17
2022-09-15T20:39:25.906Z,12.20
2022-09-15T20:41:52.581Z,12.16
2022-09-15T20:44:19.252Z,12.14
2022-09-15T20:46:46.134Z,12.10
2022-09-15T20:49:13.013Z,12.08
2022-09-15T20:51:39.832Z,12.03
2022-09-15T20:54:06.604Z,12.08
2022-09-15T20:56:35.426Z,12.04
2022-09-15T20:59:05.996Z,12.02
2022-09-15T21:01:36.732Z,12.02
2022-09-15T21:04:06.512Z,12.05
2022-09-15T21:06:33.995Z,12.08
2022-09-15T21:09:00.962Z,12.09
2022-09-15T21:11:30.003Z,12.09
2022-09-15T21:13:58.009Z,12.07
2022-09-15T21:16:28.662Z,12.08
2022-09-15T21:18:58.489Z,12.03
2022-09-15T21:21:31.777Z,12.03
2022-09-15T21:24:04.810Z,12.06
2022-09-15T21:27:01.161Z,12.00
2022-09-15T21:29:29.232Z,12.03
2022-09-15T21:31:56.302Z,11.97
2022-09-15T21:34:23.882Z,11.93
2022-09-15T21:36:51.867Z,12.05
2022-09-15T21:39:18.685Z,12.14
2022-09-15T21:41:45.439Z,12.14
2022-09-15T21:44:12.113Z,12.08
2022-09-15T21:46:39.902Z,11.96
2022-09-15T21:49:06.964Z,11.86
2022-09-15T21:51:33.782Z,11.85
2022-09-15T21:54:00.768Z,11.82
2022-09-15T21:56:29.894Z,11.83
2022-09-15T21:58:57.445Z,11.83
2022-09-15T22:01:30.386Z,11.84
2022-09-15T22:04:00.896Z,11.78
2022-09-15T22:06:34.301Z,11.78
2022-09-15T22:09:06.044Z,11.79
2022-09-15T22:11:34.188Z,11.79
2022-09-15T22:14:04.431Z,11.83
2022-09-15T22:16:31.701Z,11.87
2022-09-15T22:18:59.757Z,11.80
2022-09-15T22:21:31.175Z,11.68
2022-09-15T22:23:59.408Z,11.63
2022-09-15T22:26:31.162Z,11.64
2022-09-15T22:28:59.971Z,11.62
2022-09-15T22:31:28.784Z,11.62
2022-09-15T22:33:55.797Z,11.55
2022-09-15T22:36:29.225Z,11.50
2022-09-15T22:39:03.554Z,11.53
2022-09-15T22:41:33.949Z,11.49
2022-09-15T22:44:00.950Z,11.50
2022-09-15T22:46:27.781Z,11.47
2022-09-15T22:48:54.703Z,11.46
2022-09-15T22:51:21.384Z,11.49
2022-09-15T22:53:48.125Z,11.53
2022-09-15T22:56:19.920Z,11.54
2022-09-15T22:58:49.481Z,11.51
2022-09-15T23:01:20.154Z,11.46
2022-09-15T23:03:58.630Z,11.48
2022-09-15T23:06:28.841Z,11.50
2022-09-15T23:08:59.695Z,11.54
2022-09-15T23:11:31.400Z,11.53
2022-09-15T23:13:58.668Z,11.50
2022-09-15T23:16:26.635Z,11.51
2022-09-15T23:18:54.397Z,11.48
2022-09-15T23:21:21.850Z,11.47
2022-09-15T23:23:49.290Z,11.45
2022-09-15T23:26:22.766Z,11.40
2022-09-15T23:28:49.930Z,11.36
2022-09-15T23:31:17.675Z,11.32
2022-09-15T23:33:45.027Z,11.29
2022-09-15T23:36:15.655Z,11.24
2022-09-15T23:38:45.308Z,11.18
2022-09-15T23:41:14.747Z,11.16
2022-09-15T23:43:41.643Z,11.14
2022-09-15T23:46:09.820Z,11.11
2022-09-15T23:48:37.331Z,11.08
2022-09-15T23:51:05.329Z,11.07
2022-09-15T23:53:32.149Z,11.01
2022-09-15T23:55:59.115Z,10.98
2022-09-15T23:58:26.425Z,10.93
